チャーチル空港の過去48時間の天気

チャーチル空港 (Churchill)

現在時刻: 9/17 06:22 CDT (9/17 11:22 UTC) 以下の時間は現地時間です。

過去48時間のMETAR気象情報
時間 風向 風速(m/s) 視程 気温(℃) 湿度(%) 気圧(hPa) 天気現象
17 06:00 南東 6 10km以上 9 100 1013
17 05:55 南南東 6 10km以上 9 100 1013.1
17 05:00 南東 6 10km以上 9 100 1013.2
17 04:04 南東 7 10km以上 9 100 1013.4
17 03:00 南東 7 800m 8 100 1014
17 02:00 南東 6 800m 8 100 1014.6
17 01:07 南東 7 800m 9 100 1014.9
17 01:00 南東 6 400m 9 100 1015
17 00:12 南東 8 400m 9 100 1015
17 00:00 南東 9 10km以上 9 93 1015
16 23:52 南東 9 10km以上 9 93 1014.9
16 23:00 南東 7 10km以上 9 100 1015.4
16 22:27 東南東 7 10km以上 9 93 1015.4
16 22:00 東南東 6 10km以上 9 93 1015.5
16 21:00 東南東 6 10km以上 9 93 1015.6
16 20:00 6 10km以上 9 93 1015.7
16 19:00 5 10km以上 10 87 1015.9
16 18:00 6 10km以上 11 82 1015.7
16 17:00 東北東 5 10km以上 11 87 1016
16 16:12 7 10km以上 11 82 1015.8
16 16:00 東北東 6 10km以上 11 87 1015.8
16 15:26 東北東 5 10km以上 11 87 1015.9
16 15:00 東北東 5 10km以上 11 87 1015.7
16 14:17 6 10km以上 13 82 1015.4
CYYQ 171100Z 14011KT 15SM SCT004 BKN170 BKN220 09/09 A2991 RMK SF3AC2CI2 SLP130
CYYQ 171055Z 15012KT 15SM FEW002 SCT180 BKN270 09/09 A2991 RMK SF1AC3CI3 SLP131
CYYQ 171000Z 14011KT 15SM BKN002 OVC100 09/09 A2991 RMK SF6AC2 SLP132
CYYQ 170904Z 14013KT 10SM OVC002 09/09 A2992 RMK SF8 SLP134
CYYQ 170800Z 13013KT 1/2SM R33/6000FT/U FG VV002 08/08 A2994 RMK FG8 SLP140
CYYQ 170700Z 13012KT 1/2SM R33/P6000FT/D FG VV002 08/08 A2995 RMK FG8 SLP146
CYYQ 170607Z 13014KT 1/2SM R33/P6000FT/N FG OVC002 09/09 A2996 RMK SF8 SLP149
CYYQ 170600Z 14012G18KT 1/4SM R33/P6000FT/U FG VV002 09/09 A2996 RMK FG8 SLP150
CYYQ 170512Z 13015KT 1/4SM R33/P6000FT/D FG VV002 09/09 A2996 RMK FG8 SLP150
CYYQ 170500Z 13017KT 15SM BKN003 09/08 A2996 RMK SF7 SLP150
CYYQ 170452Z 13017KT 15SM OVC003 09/08 A2996 RMK SF8 SLP149
CYYQ 170400Z 13013G21KT 15SM BKN005 OVC130 09/09 A2998 RMK SF5AC3 SLP154
CYYQ 170327Z 11013G18KT 15SM BKN007 OVC130 09/08 A2998 RMK SF6AC2 SLP154
CYYQ 170300Z 11012G18KT 15SM SCT007 BKN130 BKN150 OVC170 09/08 A2998 RMK SF3AC3AC1AC1 SLP155
CYYQ 170200Z 11011KT 15SM BKN150 OVC180 09/08 A2998 RMK AC6CI2 SLP156
CYYQ 170100Z 10012KT 15SM BKN160 BKN190 09/08 A2999 RMK AC5CI2 SLP157
CYYQ 170000Z 10010G15KT 15SM FEW190 FEW250 FEW270 10/08 A2999 RMK AC1CI1CC1 CI TR CC TR SLP159
CYYQ 162300Z 09012KT 15SM FEW011 FEW180 BKN200 BKN250 11/08 A2999 RMK SC1AC2CI3CI2 SC TR SLP157
CYYQ 162200Z 07010KT 15SM SCT011 BKN120 BKN250 11/09 A2999 RMK SC3AC2CI2 SLP160
CYYQ 162112Z 08014KT 15SM FEW009 SCT014 BKN120 BKN250 11/08 A2999 RMK SF2SC2AC2CI1 SLP158
CYYQ 162100Z 07011KT 15SM SCT007 BKN014 BKN120 11/09 A2999 RMK SF3SC2AC2 SLP158
CYYQ 162026Z 07009KT 15SM BKN005 BKN014 11/09 A2999 RMK SF7SC1 SC TR SLP159
CYYQ 162000Z 06010KT 15SM BKN009 BKN014 11/09 A2999 RMK SC7SC1 SC TR SLP157
CYYQ 161917Z 08012KT 15SM BKN009 BKN014 13/10 A2998 RMK SC5SC2 SLP154